Time;durP1;ratioP1;P1;durP2;ratioP2;P2;SDS_P1;SDS_P2;PMS_P1;PMS_P2;Temp;Humidity;BMP_temperature;BMP_pressure;BME280_temperature;BME280_humidity;BME280_pressure;Samples;Min_cycle;Max_cycle;Signal;HPM_P1;HPM_P2
2021/12/26 00:00:53;;;;;;;0.32;0.20;;;-3.20;87.10;;;;;;6225255;22;20443;-78
2021/12/26 00:03:20;;;;;;;0.47;0.20;;;-3.20;87.10;;;;;;6200191;23;20444;-78
2021/12/26 00:05:46;;;;;;;0.40;0.20;;;-3.20;87.10;;;;;;6196262;23;20450;-78
2021/12/26 00:08:12;;;;;;;0.20;0.10;;;-3.20;87.10;;;;;;6195820;22;20055;-78
2021/12/26 00:10:38;;;;;;;0.28;0.15;;;-3.20;87.10;;;;;;6222434;22;20332;-78
2021/12/26 00:13:04;;;;;;;0.45;0.20;;;-3.30;87.00;;;;;;6222501;23;20348;-78
2021/12/26 00:15:30;;;;;;;0.13;0.10;;;-3.30;87.00;;;;;;6223562;22;20030;-78
2021/12/26 00:17:56;;;;;;;0.20;0.10;;;-3.30;87.00;;;;;;6196910;22;20098;-77
2021/12/26 00:20:22;;;;;;;0.17;0.17;;;-3.20;87.10;;;;;;6221130;23;20004;-78
2021/12/26 00:22:49;;;;;;;0.68;0.25;;;-3.30;87.00;;;;;;6172050;23;20395;-78
2021/12/26 00:25:15;;;;;;;0.43;0.20;;;-3.30;87.00;;;;;;6223312;22;20083;-78
2021/12/26 00:27:41;;;;;;;0.85;0.35;;;-3.40;87.00;;;;;;6198004;22;20497;-77
2021/12/26 00:30:14;;;;;;;0.17;0.10;;;-3.30;87.00;;;;;;6221895;22;20043;-78
2021/12/26 00:32:39;;;;;;;0.20;0.20;;;-3.40;87.00;;;;;;6225830;22;20018;-78
2021/12/26 00:35:07;;;;;;;0.20;0.10;;;-3.40;87.00;;;;;;6199953;22;20012;-78
2021/12/26 00:37:32;;;;;;;0.20;0.10;;;-3.40;87.00;;;;;;6221828;22;20309;-78
2021/12/26 00:39:58;;;;;;;0.47;0.20;;;-3.40;87.60;;;;;;6223338;22;20009;-77
2021/12/26 00:42:24;;;;;;;0.22;0.20;;;-3.40;87.00;;;;;;6195940;22;20066;-78
2021/12/26 00:44:50;;;;;;;0.20;0.20;;;-3.30;87.00;;;;;;6233367;23;20020;-78
2021/12/26 00:47:16;;;;;;;0.68;0.30;;;-3.50;86.90;;;;;;6223589;22;20556;-78
2021/12/26 00:49:42;;;;;;;0.10;0.10;;;-3.40;87.00;;;;;;6172499;22;20100;-79
2021/12/26 00:52:09;;;;;;;0.17;0.10;;;-3.40;87.00;;;;;;6249461;22;20073;-79
2021/12/26 00:54:36;;;;;;;0.93;0.20;;;-3.40;87.00;;;;;;6222686;22;20436;-78
2021/12/26 00:57:03;;;;;;;0.57;0.20;;;-3.40;87.00;;;;;;6221870;22;20012;-78
2021/12/26 00:59:29;;;;;;;0.20;0.20;;;-3.50;86.90;;;;;;6198006;23;20047;-78
2021/12/26 01:01:55;;;;;;;0.22;0.20;;;-3.50;86.90;;;;;;6222785;22;20019;-78
2021/12/26 01:04:22;;;;;;;0.70;0.22;;;-3.50;86.90;;;;;;6224929;22;20012;-78
2021/12/26 01:06:49;;;;;;;0.20;0.10;;;-3.50;86.90;;;;;;6201381;22;20411;-78
2021/12/26 01:09:21;;;;;;;0.30;0.20;;;-3.50;86.90;;;;;;6227082;22;20004;-78
2021/12/26 01:11:51;;;;;;;;;;;-3.40;86.90;;;;;;6204190;23;20070;-78
2021/12/26 01:14:24;;;;;;;0.30;0.20;;;-3.40;86.90;;;;;;6254930;22;19908;-78
2021/12/26 01:16:50;;;;;;;0.68;0.20;;;-3.50;86.70;;;;;;6230077;22;20027;-78
2021/12/26 01:19:19;;;;;;;0.17;0.17;;;-3.50;86.70;;;;;;6225374;22;20008;-78
2021/12/26 01:21:44;;;;;;;0.13;0.13;;;-3.40;86.70;;;;;;6227061;22;20396;-78
2021/12/26 01:24:14;;;;;;;0.30;0.15;;;-3.50;86.70;;;;;;6255921;22;20008;-78
2021/12/26 01:26:41;;;;;;;0.30;0.20;;;-3.50;86.70;;;;;;6232004;22;20004;-79
2021/12/26 01:29:07;;;;;;;0.25;0.15;;;-3.60;86.60;;;;;;6201499;22;20009;-79
2021/12/26 01:31:33;;;;;;;0.00;0.00;;;-3.50;86.60;;;;;;6254107;22;20004;-78
2021/12/26 01:34:05;;;;;;;0.40;0.20;;;-3.50;86.60;;;;;;6200082;22;20132;-78
2021/12/26 01:36:33;;;;;;;0.40;0.10;;;-3.50;86.60;;;;;;6205572;22;20016;-79
2021/12/26 01:39:01;;;;;;;0.20;0.10;;;-3.50;86.60;;;;;;6228415;22;20348;-79
2021/12/26 01:41:28;;;;;;;0.38;0.20;;;-3.50;86.60;;;;;;6255544;22;20027;-79
2021/12/26 01:43:58;;;;;;;0.28;0.20;;;-3.50;86.60;;;;;;6227365;22;20056;-79
2021/12/26 01:46:26;;;;;;;0.10;0.10;;;-3.50;86.60;;;;;;6202650;22;20031;-79
2021/12/26 01:49:08;;;;;;;0.15;0.13;;;-3.50;86.70;;;;;;6228755;22;20377;-79
2021/12/26 01:51:33;;;;;;;;;;;-3.50;86.70;;;;;;6256919;22;20004;-78
2021/12/26 01:54:05;;;;;;;0.30;0.10;;;-3.50;86.70;;;;;;6227498;22;20010;-78
2021/12/26 01:56:31;;;;;;;0.00;0.00;;;-3.50;86.70;;;;;;6233388;22;20007;-79
2021/12/26 01:58:57;;;;;;;0.50;0.10;;;-3.60;86.50;;;;;;6231134;22;20073;-78
2021/12/26 02:01:23;;;;;;;0.10;0.10;;;-3.60;86.60;;;;;;6206474;22;20018;-78
2021/12/26 02:03:49;;;;;;;0.30;0.10;;;-3.50;86.70;;;;;;6230295;23;20023;-77
2021/12/26 02:06:16;;;;;;;0.10;0.10;;;-3.60;86.60;;;;;;6235027;23;20059;-78
2021/12/26 02:08:42;;;;;;;0.00;0.00;;;-3.60;86.60;;;;;;6181934;23;20301;-78
2021/12/26 02:11:07;;;;;;;0.08;0.08;;;-3.60;86.60;;;;;;6261301;22;20062;-77
2021/12/26 02:13:34;;;;;;;0.22;0.17;;;-3.60;86.60;;;;;;6182143;22;20015;-78
2021/12/26 02:16:00;;;;;;;0.10;0.10;;;-3.60;86.50;;;;;;6237068;22;20012;-78
2021/12/26 02:18:26;;;;;;;0.10;0.10;;;-3.60;86.50;;;;;;6264468;22;20018;-78
2021/12/26 02:23:42;;;;;;;0.28;0.10;;;-3.60;86.50;;;;;;6238192;22;20348;-78
2021/12/26 02:28:51;;;;;;;0.32;0.30;;;-3.70;86.30;;;;;;6225577;22;20012;-77
2021/12/26 02:31:18;;;;;;;0.20;0.10;;;-3.60;86.40;;;;;;6241220;23;20003;-78
2021/12/26 02:33:44;;;;;;;0.35;0.28;;;-3.60;86.30;;;;;;6217940;22;20075;-78
2021/12/26 02:36:10;;;;;;;0.30;0.20;;;-3.60;86.30;;;;;;6219381;22;20020;-78
2021/12/26 02:38:36;;;;;;;0.30;0.15;;;-3.60;86.20;;;;;;6269631;22;20019;-77
2021/12/26 02:41:03;;;;;;;0.10;0.10;;;-3.60;86.20;;;;;;6269956;22;20026;-77
2021/12/26 02:43:29;;;;;;;0.32;0.20;;;-3.60;86.20;;;;;;6243602;22;20007;-77
2021/12/26 02:45:56;;;;;;;0.40;0.20;;;-3.60;86.20;;;;;;6270045;22;20015;-78
2021/12/26 02:48:22;;;;;;;0.65;0.20;;;-3.60;86.10;;;;;;6218063;23;20020;-78
2021/12/26 02:50:56;;;;;;;0.00;0.00;;;-3.60;86.10;;;;;;6243465;22;20052;-79
2021/12/26 02:53:22;;;;;;;0.10;0.10;;;-3.60;86.20;;;;;;6244543;22;20016;-78
2021/12/26 02:55:50;;;;;;;0.20;0.20;;;-3.60;86.10;;;;;;6219490;23;20026;-78
2021/12/26 02:58:16;;;;;;;0.70;0.30;;;-3.70;86.00;;;;;;6192391;22;20042;-78
2021/12/26 03:00:46;;;;;;;0.30;0.15;;;-3.60;86.10;;;;;;6270605;22;20038;-77
2021/12/26 03:03:13;;;;;;;0.47;0.20;;;-3.60;86.00;;;;;;6217771;22;20056;-77
2021/12/26 03:05:41;;;;;;;0.20;0.20;;;-3.60;86.00;;;;;;6269771;22;20004;-78
2021/12/26 03:08:11;;;;;;;0.28;0.20;;;-3.70;85.90;;;;;;6241465;22;20012;-78
2021/12/26 03:10:39;;;;;;;0.88;0.30;;;-3.60;85.90;;;;;;6244409;22;20094;-78
2021/12/26 03:13:08;;;;;;;0.20;0.20;;;-3.60;85.90;;;;;;6218468;22;20428;-78
2021/12/26 03:15:34;;;;;;;0.40;0.10;;;-3.70;85.80;;;;;;6193948;22;20004;-78
2021/12/26 03:18:01;;;;;;;0.50;0.20;;;-3.60;85.80;;;;;;6269647;22;19995;-78
2021/12/26 03:20:31;;;;;;;0.47;0.30;;;-3.60;85.80;;;;;;6243640;22;20012;-78
2021/12/26 03:23:00;;;;;;;0.10;0.10;;;-3.60;85.80;;;;;;6241989;22;20409;-77
2021/12/26 03:25:27;;;;;;;0.10;0.10;;;-3.70;85.70;;;;;;6222066;22;20016;-79
2021/12/26 03:27:53;;;;;;;0.13;0.10;;;-3.60;85.80;;;;;;6243812;22;20012;-80
2021/12/26 03:30:22;;;;;;;0.22;0.20;;;-3.60;85.70;;;;;;6228870;22;20088;-79
2021/12/26 03:32:49;;;;;;;1.05;0.30;;;-3.60;85.70;;;;;;6218190;22;20056;-79
2021/12/26 03:35:15;;;;;;;0.75;0.20;;;-3.60;85.70;;;;;;6219725;22;20305;-79
2021/12/26 03:37:43;;;;;;;0.43;0.20;;;-3.60;85.70;;;;;;6193297;22;20008;-78
2021/12/26 03:40:09;;;;;;;0.10;0.10;;;-3.60;85.80;;;;;;6218763;23;20007;-77
2021/12/26 03:42:36;;;;;;;0.10;0.10;;;-3.60;85.70;;;;;;6218124;22;20325;-78
2021/12/26 03:45:07;;;;;;;0.30;0.20;;;-3.60;85.70;;;;;;6244595;22;20383;-78
2021/12/26 03:47:34;;;;;;;0.10;0.10;;;-3.70;85.70;;;;;;6218039;23;20328;-78
2021/12/26 03:50:01;;;;;;;0.20;0.20;;;-3.60;85.80;;;;;;6218735;22;20374;-78
2021/12/26 03:52:27;;;;;;;0.35;0.20;;;-3.70;85.70;;;;;;6221505;22;20008;-78
2021/12/26 03:54:53;;;;;;;1.13;0.22;;;-3.70;85.80;;;;;;6167949;22;20004;-78
2021/12/26 03:57:19;;;;;;;0.10;0.10;;;-3.70;85.80;;;;;;6217804;22;20426;-78
2021/12/26 03:59:46;;;;;;;0.20;0.10;;;-3.60;85.80;;;;;;6244282;22;20000;-78
2021/12/26 04:02:13;;;;;;;0.30;0.20;;;-3.70;85.80;;;;;;6247417;22;20008;-78
2021/12/26 04:04:39;;;;;;;0.10;0.10;;;-3.70;85.80;;;;;;6192952;22;20012;-78
2021/12/26 04:07:05;;;;;;;0.13;0.13;;;-3.60;85.80;;;;;;6217670;23;20003;-78
2021/12/26 04:09:31;;;;;;;0.52;0.30;;;-3.70;85.80;;;;;;6244577;22;20470;-78
2021/12/26 04:11:57;;;;;;;0.20;0.13;;;-3.70;85.60;;;;;;6218180;22;20012;-78
2021/12/26 04:14:23;;;;;;;0.43;0.20;;;-3.70;85.60;;;;;;6217845;22;20047;-78
2021/12/26 04:16:48;;;;;;;0.10;0.10;;;-3.70;85.50;;;;;;6217419;22;20012;-78
2021/12/26 04:19:14;;;;;;;0.20;0.20;;;-3.70;85.50;;;;;;6192631;22;20083;-78
2021/12/26 04:21:40;;;;;;;0.70;0.30;;;-3.70;85.50;;;;;;6217473;22;20004;-78
2021/12/26 04:24:06;;;;;;;0.35;0.10;;;-3.70;85.50;;;;;;6192743;22;20012;-79
2021/12/26 04:26:32;;;;;;;0.47;0.25;;;-3.70;85.50;;;;;;6244349;22;20008;-78
2021/12/26 04:28:58;;;;;;;0.10;0.10;;;-3.70;85.50;;;;;;6244814;22;20466;-78
2021/12/26 04:31:24;;;;;;;0.25;0.20;;;-3.70;85.50;;;;;;6192600;22;20015;-78
2021/12/26 04:33:50;;;;;;;0.10;0.10;;;-3.70;85.40;;;;;;6244594;22;20008;-78
2021/12/26 04:36:18;;;;;;;0.15;0.15;;;-3.70;85.30;;;;;;6192370;22;20012;-78
2021/12/26 04:38:44;;;;;;;0.70;0.10;;;-3.60;85.40;;;;;;6192100;23;20019;-77
2021/12/26 04:41:11;;;;;;;0.43;0.13;;;-3.80;85.20;;;;;;6244478;22;20436;-77
2021/12/26 04:43:37;;;;;;;0.00;0.00;;;-3.70;85.30;;;;;;6217525;23;20095;-77
2021/12/26 04:46:05;;;;;;;0.10;0.10;;;-3.70;85.30;;;;;;6217666;23;20004;-77
2021/12/26 04:48:33;;;;;;;0.25;0.10;;;-3.80;85.20;;;;;;6195315;22;20015;-77
2021/12/26 04:51:00;;;;;;;0.13;0.13;;;-3.80;85.20;;;;;;6217492;22;20016;-77
2021/12/26 04:53:26;;;;;;;1.25;0.13;;;-3.70;85.20;;;;;;6229964;22;20047;-77
2021/12/26 04:55:51;;;;;;;0.13;0.10;;;-3.70;85.20;;;;;;6216560;22;20020;-78
2021/12/26 04:58:18;;;;;;;0.10;0.10;;;-3.70;85.20;;;;;;6271738;22;19999;-78
2021/12/26 05:00:44;;;;;;;0.13;0.13;;;-3.70;85.20;;;;;;6217602;22;20036;-79
2021/12/26 05:03:09;;;;;;;0.20;0.20;;;-3.70;85.10;;;;;;6220582;22;20066;-78
2021/12/26 05:05:36;;;;;;;0.13;0.13;;;-3.70;85.10;;;;;;6266165;22;19999;-78
2021/12/26 05:08:04;;;;;;;0.40;0.17;;;-3.80;85.00;;;;;;6287303;22;20080;-78
2021/12/26 05:10:31;;;;;;;0.50;0.32;;;-3.70;85.70;;;;;;6330380;22;20436;-77
2021/12/26 05:12:59;;;;;;;0.20;0.20;;;-3.70;85.10;;;;;;6305934;22;20074;-78
2021/12/26 05:15:25;;;;;;;0.35;0.22;;;-3.70;85.00;;;;;;6330844;22;20023;-79
2021/12/26 05:17:52;;;;;;;0.55;0.20;;;-3.70;84.90;;;;;;6333643;22;20011;-81
2021/12/26 05:20:18;;;;;;;0.60;0.20;;;-3.70;84.90;;;;;;6332725;22;20163;-79
2021/12/26 05:22:45;;;;;;;0.82;0.28;;;-3.70;84.80;;;;;;6304355;22;20046;-78
2021/12/26 05:25:11;;;;;;;0.20;0.20;;;-3.60;84.80;;;;;;6305830;22;20014;-80
2021/12/26 05:27:38;;;;;;;0.05;0.05;;;-3.60;84.70;;;;;;6305246;22;19995;-79
2021/12/26 05:30:06;;;;;;;0.95;0.30;;;-3.50;84.70;;;;;;6301827;22;20011;-78
2021/12/26 05:32:32;;;;;;;0.20;0.10;;;-3.50;84.60;;;;;;6278763;22;20037;-78
2021/12/26 05:34:58;;;;;;;0.38;0.20;;;-3.40;84.50;;;;;;6331880;22;20407;-79
2021/12/26 05:37:24;;;;;;;0.50;0.10;;;-3.40;84.40;;;;;;6280164;22;20415;-79
2021/12/26 05:39:50;;;;;;;0.20;0.20;;;-3.30;84.40;;;;;;6267295;22;20018;-78
2021/12/26 05:42:16;;;;;;;0.13;0.13;;;-3.30;84.30;;;;;;6323571;22;20019;-78
2021/12/26 05:44:43;;;;;;;0.35;0.22;;;-3.30;84.20;;;;;;6314422;22;20086;-78
2021/12/26 05:47:10;;;;;;;0.15;0.15;;;-3.20;84.10;;;;;;6279427;22;20031;-79
2021/12/26 05:49:35;;;;;;;0.15;0.10;;;-3.30;84.10;;;;;;6288150;22;20007;-78
2021/12/26 05:52:01;;;;;;;0.75;0.30;;;-3.20;84.00;;;;;;6301874;22;20007;-78
2021/12/26 05:54:27;;;;;;;0.65;0.22;;;-3.30;83.90;;;;;;6323257;22;20055;-77
2021/12/26 05:56:53;;;;;;;0.10;0.10;;;-3.30;84.00;;;;;;6253432;22;20030;-78
2021/12/26 05:59:19;;;;;;;0.13;0.10;;;-3.30;83.90;;;;;;6279177;22;20346;-77
2021/12/26 06:01:45;;;;;;;0.10;0.10;;;-3.20;84.00;;;;;;6304791;22;20014;-78
2021/12/26 06:04:10;;;;;;;0.10;0.10;;;-3.30;83.90;;;;;;6279160;22;19999;-78
2021/12/26 06:06:36;;;;;;;0.38;0.22;;;-3.20;84.00;;;;;;6306354;22;20004;-78
2021/12/26 06:09:04;;;;;;;0.20;0.15;;;-3.20;83.90;;;;;;6306682;22;20007;-78
2021/12/26 06:11:30;;;;;;;0.20;0.20;;;-3.20;83.90;;;;;;6306481;22;20033;-79
2021/12/26 06:13:56;;;;;;;0.35;0.20;;;-3.20;84.40;;;;;;6279903;22;20015;-78
2021/12/26 06:16:22;;;;;;;0.20;0.10;;;-3.10;83.80;;;;;;6306335;22;20094;-78
2021/12/26 06:18:47;;;;;;;0.30;0.20;;;-3.20;83.70;;;;;;6306251;22;20439;-78
2021/12/26 06:21:14;;;;;;;0.38;0.30;;;-3.10;83.70;;;;;;6253094;22;20080;-78
2021/12/26 06:23:39;;;;;;;0.10;0.10;;;-3.10;83.70;;;;;;6304604;22;20077;-78
2021/12/26 06:26:05;;;;;;;0.30;0.17;;;-3.10;83.60;;;;;;6304437;22;20019;-78
2021/12/26 06:28:31;;;;;;;0.40;0.20;;;-3.10;83.60;;;;;;6304590;22;20011;-78
2021/12/26 06:30:57;;;;;;;0.40;0.20;;;-3.00;83.70;;;;;;6278886;22;20034;-79
2021/12/26 06:33:22;;;;;;;0.10;0.10;;;-3.00;83.60;;;;;;6306246;22;20039;-79
2021/12/26 06:35:50;;;;;;;0.15;0.10;;;-3.00;83.60;;;;;;6304639;22;20006;-78
2021/12/26 06:38:16;;;;;;;0.43;0.30;;;-3.00;83.50;;;;;;6279712;22;20003;-79
2021/12/26 06:40:41;;;;;;;0.43;0.28;;;-3.00;84.10;;;;;;6278763;22;20398;-79
2021/12/26 06:43:08;;;;;;;0.45;0.20;;;-3.00;83.50;;;;;;6278738;22;20019;-79
2021/12/26 06:45:34;;;;;;;0.30;0.10;;;-2.80;83.60;;;;;;6304498;22;20008;-78
2021/12/26 06:48:02;;;;;;;0.80;0.30;;;-2.90;83.50;;;;;;6306082;22;20014;-78
2021/12/26 06:50:28;;;;;;;0.10;0.10;;;-2.90;83.50;;;;;;6306190;22;20381;-78
2021/12/26 06:52:54;;;;;;;0.40;0.28;;;-2.90;83.40;;;;;;6310592;22;20011;-78
2021/12/26 06:55:20;;;;;;;0.17;0.17;;;-2.90;83.50;;;;;;6318663;22;20437;-78
2021/12/26 06:57:46;;;;;;;0.25;0.10;;;-2.90;83.40;;;;;;6316030;22;20094;-78
2021/12/26 07:00:15;;;;;;;0.10;0.10;;;-2.80;83.50;;;;;;6318329;22;20430;-78
2021/12/26 07:02:42;;;;;;;0.10;0.10;;;-2.90;83.40;;;;;;6320963;22;20110;-78
2021/12/26 07:05:09;;;;;;;0.20;0.20;;;-2.80;83.40;;;;;;6298004;22;20023;-78
2021/12/26 07:07:34;;;;;;;0.22;0.20;;;-2.90;83.30;;;;;;6272825;22;20308;-78
2021/12/26 07:10:00;;;;;;;0.22;0.22;;;-2.80;83.40;;;;;;6322115;22;20029;-79
2021/12/26 07:12:26;;;;;;;0.50;0.10;;;-2.80;83.40;;;;;;6325341;22;20423;-79
2021/12/26 07:14:52;;;;;;;0.25;0.17;;;-2.80;83.40;;;;;;6294861;22;20041;-79
2021/12/26 07:17:17;;;;;;;0.10;0.10;;;-2.80;83.40;;;;;;6320334;22;20024;-79
2021/12/26 07:19:43;;;;;;;0.10;0.10;;;-2.80;83.40;;;;;;6293056;22;20008;-79
2021/12/26 07:22:09;;;;;;;0.38;0.17;;;-2.80;83.40;;;;;;6294981;22;20435;-79
2021/12/26 07:24:35;;;;;;;0.10;0.10;;;-2.70;83.40;;;;;;6322596;22;20060;-79
2021/12/26 07:27:00;;;;;;;0.20;0.20;;;-2.70;83.40;;;;;;6271622;22;19987;-79
2021/12/26 07:29:26;;;;;;;0.10;0.10;;;-2.70;83.30;;;;;;6298811;22;20016;-79
2021/12/26 07:31:52;;;;;;;0.10;0.10;;;-2.70;83.30;;;;;;6329502;22;20007;-79
2021/12/26 07:34:21;;;;;;;0.10;0.10;;;-2.70;83.30;;;;;;6299345;22;20051;-79
2021/12/26 07:36:46;;;;;;;0.08;0.08;;;-2.70;83.30;;;;;;6274043;22;20102;-79
2021/12/26 07:39:12;;;;;;;0.25;0.10;;;-2.70;83.30;;;;;;6273584;22;20022;-78
2021/12/26 07:41:38;;;;;;;0.47;0.25;;;-2.60;83.40;;;;;;6321687;22;20011;-78
2021/12/26 07:44:21;;;;;;;0.20;0.10;;;-2.60;83.40;;;;;;6319945;22;20007;-80
2021/12/26 07:46:47;;;;;;;0.20;0.20;;;-2.60;83.40;;;;;;6319508;22;20004;-79
2021/12/26 07:49:13;;;;;;;0.20;0.20;;;-2.70;83.30;;;;;;6292261;22;20500;-79
2021/12/26 07:51:39;;;;;;;0.20;0.17;;;-2.70;83.30;;;;;;6266114;22;20014;-78
2021/12/26 07:54:05;;;;;;;0.10;0.10;;;-2.70;83.30;;;;;;6279048;22;20017;-79
2021/12/26 07:56:31;;;;;;;0.22;0.08;;;-2.60;83.40;;;;;;6253073;22;20405;-79
2021/12/26 07:58:58;;;;;;;0.60;0.10;;;-2.60;83.40;;;;;;6253118;22;20045;-79
2021/12/26 08:01:28;;;;;;;0.30;0.20;;;-2.70;83.40;;;;;;6253103;22;20064;-78
2021/12/26 08:03:56;;;;;;;0.20;0.20;;;-2.60;83.50;;;;;;6305897;22;20011;-79
2021/12/26 08:06:22;;;;;;;0.10;0.10;;;-2.60;83.50;;;;;;6304378;22;20003;-78
2021/12/26 08:08:49;;;;;;;0.43;0.20;;;-2.60;83.40;;;;;;6304268;22;20011;-78
2021/12/26 08:11:15;;;;;;;0.28;0.20;;;-2.60;83.50;;;;;;6306150;22;20048;-78
2021/12/26 08:13:42;;;;;;;0.10;0.10;;;-2.70;83.40;;;;;;6304197;22;20096;-79
2021/12/26 08:16:08;;;;;;;0.15;0.15;;;-2.60;83.50;;;;;;6304195;22;20011;-79
2021/12/26 08:18:34;;;;;;;0.30;0.30;;;-2.60;83.50;;;;;;6303994;22;19999;-79
2021/12/26 08:21:00;;;;;;;0.10;0.10;;;-2.60;83.60;;;;;;6303880;22;20003;-79
2021/12/26 08:23:27;;;;;;;0.10;0.10;;;-2.60;83.50;;;;;;6303827;22;20011;-78
2021/12/26 08:25:53;;;;;;;0.10;0.10;;;-2.60;83.50;;;;;;6306156;22;20026;-78
2021/12/26 08:28:20;;;;;;;0.40;0.13;;;-2.60;83.50;;;;;;6303861;22;20031;-78
2021/12/26 08:30:46;;;;;;;0.20;0.10;;;-2.60;83.40;;;;;;6305610;22;20003;-78
2021/12/26 08:33:12;;;;;;;0.10;0.10;;;-2.70;83.40;;;;;;6288507;22;20094;-79
2021/12/26 08:35:41;;;;;;;0.70;0.20;;;-2.60;83.40;;;;;;6320192;22;19995;-78
2021/12/26 08:38:08;;;;;;;0.10;0.10;;;-2.60;83.40;;;;;;6252681;22;20090;-78
2021/12/26 08:40:35;;;;;;;0.10;0.10;;;-2.50;83.40;;;;;;6305344;22;20392;-78
2021/12/26 08:43:00;;;;;;;0.22;0.10;;;-2.50;83.90;;;;;;6278048;22;20011;-78
2021/12/26 08:45:26;;;;;;;0.30;0.15;;;-2.50;83.30;;;;;;6305456;22;20335;-78
2021/12/26 08:47:55;;;;;;;0.10;0.10;;;-2.50;83.20;;;;;;6227365;22;20015;-78
2021/12/26 08:50:22;;;;;;;0.10;0.10;;;-2.40;83.30;;;;;;6252234;22;20502;-79
2021/12/26 08:52:48;;;;;;;0.20;0.20;;;-2.50;83.20;;;;;;6253130;22;20012;-78
2021/12/26 08:55:14;;;;;;;0.30;0.30;;;-2.50;83.20;;;;;;6277851;22;20011;-78
2021/12/26 08:57:40;;;;;;;0.20;0.20;;;-2.40;83.10;;;;;;6305999;22;20081;-78
2021/12/26 09:00:09;;;;;;;0.15;0.15;;;-2.40;83.10;;;;;;6227322;22;20012;-78
2021/12/26 09:02:35;;;;;;;0.63;0.20;;;-2.40;83.10;;;;;;6305334;22;20383;-78
2021/12/26 09:05:01;;;;;;;0.20;0.10;;;-2.40;83.10;;;;;;6278474;22;20015;-78
2021/12/26 09:07:28;;;;;;;0.20;0.10;;;-2.30;83.20;;;;;;6277950;22;20031;-78
2021/12/26 09:09:55;;;;;;;0.20;0.10;;;-2.30;83.10;;;;;;6305296;22;19995;-78
2021/12/26 09:12:21;;;;;;;0.13;0.10;;;-2.30;83.10;;;;;;6278602;22;20700;-78
2021/12/26 09:14:47;;;;;;;0.30;0.22;;;-2.30;83.00;;;;;;6277912;22;20003;-78
2021/12/26 09:17:13;;;;;;;0.28;0.25;;;-2.20;82.90;;;;;;6305413;22;20030;-78
2021/12/26 09:19:39;;;;;;;0.10;0.10;;;-2.20;82.90;;;;;;6226614;22;20018;-79
2021/12/26 09:22:07;;;;;;;0.32;0.10;;;-2.20;82.80;;;;;;6226625;22;20500;-79
2021/12/26 09:24:33;;;;;;;0.45;0.20;;;-2.20;82.70;;;;;;6303378;22;20007;-79
2021/12/26 09:27:00;;;;;;;0.20;0.17;;;-2.10;82.70;;;;;;6303376;22;20014;-78
2021/12/26 09:29:25;;;;;;;0.10;0.10;;;-2.10;82.80;;;;;;6303675;22;20442;-79
2021/12/26 09:31:53;;;;;;;0.10;0.10;;;-2.10;82.70;;;;;;6303973;22;20007;-79
2021/12/26 09:34:19;;;;;;;0.28;0.20;;;-2.00;82.70;;;;;;6303182;22;20029;-80
2021/12/26 09:36:46;;;;;;;0.30;0.30;;;-1.90;82.70;;;;;;6278244;22;20019;-79
2021/12/26 09:39:11;;;;;;;0.38;0.30;;;-1.90;82.60;;;;;;6277687;22;20078;-79
2021/12/26 09:41:38;;;;;;;0.65;0.20;;;-1.90;82.60;;;;;;6252086;22;20031;-80
2021/12/26 09:44:05;;;;;;;0.52;0.30;;;-2.00;82.50;;;;;;6303461;22;20086;-79
2021/12/26 09:46:33;;;;;;;0.55;0.20;;;-1.90;82.50;;;;;;6277978;22;20082;-79
2021/12/26 09:48:59;;;;;;;0.00;0.00;;;-1.80;82.50;;;;;;6303978;22;20018;-79
2021/12/26 09:51:26;;;;;;;0.17;0.10;;;-1.80;82.50;;;;;;6305173;22;20015;-80
2021/12/26 09:53:52;;;;;;;0.40;0.20;;;-1.70;82.60;;;;;;6277421;22;20019;-79
2021/12/26 09:56:18;;;;;;;0.22;0.20;;;-1.70;82.50;;;;;;6305186;22;20017;-80
2021/12/26 09:58:55;;;;;;;0.20;0.10;;;-1.70;82.50;;;;;;6279100;22;20060;-80
2021/12/26 10:01:32;;;;;;;0.52;0.22;;;-1.70;82.50;;;;;;6279364;22;20003;-80
2021/12/26 10:04:31;;;;;;;0.25;0.20;;;-1.70;82.40;;;;;;6304574;22;20443;-80
2021/12/26 10:07:03;;;;;;;0.15;0.05;;;-1.50;82.50;;;;;;6304863;22;20839;-80
2021/12/26 10:09:29;;;;;;;0.00;0.00;;;-1.50;82.30;;;;;;6306759;22;20415;-80
2021/12/26 10:11:59;;;;;;;0.35;0.10;;;-1.40;82.30;;;;;;6304389;22;20094;-80
2021/12/26 10:14:29;;;;;;;0.10;0.10;;;-1.40;82.20;;;;;;6253547;22;20007;-79
2021/12/26 10:17:06;;;;;;;0.05;0.05;;;-1.30;82.20;;;;;;6280217;22;20056;-79
2021/12/26 10:19:35;;;;;;;0.05;0.05;;;-1.30;82.20;;;;;;6306479;22;20007;-79
2021/12/26 10:22:02;;;;;;;0.43;0.13;;;-1.20;82.20;;;;;;6279499;22;20010;-79
2021/12/26 10:24:30;;;;;;;0.20;0.17;;;-1.10;82.10;;;;;;6291812;22;20014;-79
2021/12/26 10:26:58;;;;;;;0.13;0.10;;;-1.00;82.10;;;;;;6315367;22;20450;-81
2021/12/26 10:29:33;;;;;;;0.35;0.20;;;-1.00;82.00;;;;;;6317785;22;20030;-80
2021/12/26 10:32:10;;;;;;;0.10;0.10;;;-0.90;82.00;;;;;;6261964;22;20007;-81
2021/12/26 10:34:41;;;;;;;0.10;0.10;;;-0.80;82.00;;;;;;6278846;22;20010;-80
2021/12/26 10:37:11;;;;;;;0.10;0.10;;;-0.90;81.90;;;;;;6304582;22;20457;-80
2021/12/26 10:39:44;;;;;;;0.20;0.20;;;-0.80;81.80;;;;;;6253813;22;20010;-80
2021/12/26 10:42:16;;;;;;;0.77;0.28;;;-0.80;81.80;;;;;;6306019;22;20008;-80
2021/12/26 10:44:45;;;;;;;0.10;0.10;;;-0.70;81.90;;;;;;6278904;22;20427;-80
2021/12/26 10:47:14;;;;;;;0.28;0.25;;;-0.70;81.90;;;;;;6278548;22;19999;-80
2021/12/26 10:49:44;;;;;;;0.43;0.20;;;-0.70;81.80;;;;;;6314816;22;20009;-80
2021/12/26 10:52:13;;;;;;;0.32;0.28;;;-0.70;81.80;;;;;;6309103;22;20019;-81
2021/12/26 10:54:41;;;;;;;0.25;0.10;;;-0.60;81.80;;;;;;6253428;22;20007;-79
2021/12/26 10:57:12;;;;;;;0.13;0.13;;;-0.60;81.90;;;;;;6279146;22;20007;-78
2021/12/26 10:59:40;;;;;;;0.13;0.10;;;-0.50;81.80;;;;;;6279297;22;20338;-78
2021/12/26 11:02:06;;;;;;;0.55;0.20;;;-0.50;81.80;;;;;;6304601;22;20007;-78
2021/12/26 11:04:34;;;;;;;0.25;0.20;;;-0.50;81.80;;;;;;6304182;22;20049;-78
2021/12/26 11:07:08;;;;;;;0.17;0.10;;;-0.50;81.80;;;;;;6253409;22;20003;-78
2021/12/26 11:09:36;;;;;;;0.45;0.30;;;-0.50;81.80;;;;;;6304315;22;20015;-78
2021/12/26 11:12:05;;;;;;;0.20;0.10;;;-0.50;81.80;;;;;;6307537;22;20457;-78
2021/12/26 11:14:31;;;;;;;0.20;0.20;;;-0.40;81.90;;;;;;6306756;22;20015;-78
2021/12/26 11:16:57;;;;;;;0.35;0.25;;;-0.40;81.90;;;;;;6280444;22;20031;-78
2021/12/26 11:19:42;;;;;;;0.70;0.30;;;-0.40;81.90;;;;;;6305106;22;20437;-79
2021/12/26 11:22:10;;;;;;;0.20;0.20;;;-0.30;82.00;;;;;;6307003;22;20031;-78
2021/12/26 11:24:36;;;;;;;0.20;0.20;;;-0.30;82.00;;;;;;6308386;22;20015;-79
2021/12/26 11:27:03;;;;;;;0.25;0.25;;;-0.30;81.90;;;;;;6281818;22;20007;-79
2021/12/26 11:29:29;;;;;;;0.30;0.30;;;-0.20;81.90;;;;;;6307975;22;20427;-78
2021/12/26 11:31:56;;;;;;;0.45;0.20;;;-0.20;82.00;;;;;;6309300;22;20076;-79
2021/12/26 11:34:22;;;;;;;0.20;0.20;;;-0.20;82.00;;;;;;6281376;22;20458;-79
2021/12/26 11:36:50;;;;;;;0.20;0.20;;;-0.10;82.00;;;;;;6309783;22;20077;-79
2021/12/26 11:39:17;;;;;;;0.28;0.28;;;-0.10;82.00;;;;;;6310069;22;19996;-78
2021/12/26 11:42:00;;;;;;;0.57;0.30;;;-0.10;82.00;;;;;;6308311;22;19999;-78
2021/12/26 11:44:53;;;;;;;0.30;0.30;;;-0.10;81.90;;;;;;6285366;22;20014;-79
2021/12/26 11:47:56;;;;;;;0.20;0.20;;;0.00;82.00;;;;;;6310623;22;20000;-78
2021/12/26 11:50:44;;;;;;;0.40;0.30;;;0.10;82.00;;;;;;6306069;22;20007;-79
2021/12/26 11:53:35;;;;;;;0.30;0.20;;;0.10;81.90;;;;;;6306000;22;20431;-78
2021/12/26 11:56:16;;;;;;;0.55;0.20;;;0.10;81.80;;;;;;6307862;22;20011;-78
2021/12/26 11:59:00;;;;;;;0.40;0.25;;;0.20;81.70;;;;;;6308519;22;20439;-78
2021/12/26 12:01:28;;;;;;;0.25;0.25;;;0.10;81.70;;;;;;6308954;22;20090;-78
2021/12/26 12:04:24;;;;;;;1.38;0.32;;;0.20;81.70;;;;;;6306273;22;20339;-79
2021/12/26 12:06:52;;;;;;;0.45;0.30;;;0.20;81.70;;;;;;6278438;22;20434;-79
2021/12/26 12:09:37;;;;;;;0.32;0.30;;;0.30;81.70;;;;;;6304895;22;20007;-79
2021/12/26 12:12:10;;;;;;;1.23;0.40;;;0.20;81.80;;;;;;6304493;22;20007;-79
2021/12/26 12:14:53;;;;;;;0.25;0.20;;;0.30;82.00;;;;;;6253564;22;20013;-79
2021/12/26 12:17:30;;;;;;;0.60;0.30;;;0.30;82.00;;;;;;6305018;22;20060;-79
2021/12/26 12:20:10;;;;;;;0.65;0.30;;;0.20;82.00;;;;;;6305484;22;20085;-79
2021/12/26 12:22:37;;;;;;;0.20;0.20;;;0.20;82.00;;;;;;6306070;22;20039;-79
2021/12/26 12:25:39;;;;;;;0.22;0.20;;;0.20;82.20;;;;;;6306141;22;20003;-79
2021/12/26 12:28:09;;;;;;;0.20;0.20;;;0.20;82.30;;;;;;6314964;22;20000;-78
2021/12/26 12:30:37;;;;;;;0.17;0.17;;;0.20;82.40;;;;;;6292148;22;20010;-78
2021/12/26 12:33:35;;;;;;;0.20;0.20;;;0.30;82.50;;;;;;6330027;22;19999;-79
2021/12/26 12:36:10;;;;;;;0.10;0.10;;;0.30;82.60;;;;;;6298966;22;20312;-78
2021/12/26 12:38:42;;;;;;;0.38;0.30;;;0.30;82.60;;;;;;6323064;22;19999;-78
2021/12/26 12:41:10;;;;;;;;;;;0.40;82.50;;;;;;6322624;22;20003;-78
2021/12/26 12:43:46;;;;;;;0.22;0.20;;;0.40;82.40;;;;;;6320461;22;20239;-77
2021/12/26 12:46:12;;;;;;;0.70;0.30;;;0.50;82.30;;;;;;6321173;22;19999;-79
2021/12/26 12:48:45;;;;;;;1.08;0.52;;;0.60;82.20;;;;;;6263000;22;20490;-78
2021/12/26 12:51:32;;;;;;;0.22;0.22;;;0.60;82.10;;;;;;6265043;22;19999;-78
2021/12/26 12:54:02;;;;;;;0.60;0.30;;;0.70;82.10;;;;;;6294856;22;20078;-78
2021/12/26 12:56:44;;;;;;;0.20;0.20;;;0.80;82.20;;;;;;6314605;22;20068;-78
2021/12/26 12:59:33;;;;;;;0.40;0.30;;;0.80;82.10;;;;;;6315183;22;20327;-78